Time;durP1;ratioP1;P1;durP2;ratioP2;P2;SDS_P1;SDS_P2;PMS_P1;PMS_P2;Temp;Humidity;BMP_temperature;BMP_pressure;BME280_temperature;BME280_humidity;BME280_pressure;Samples;Min_cycle;Max_cycle;Signal;HPM_P1;HPM_P2
2023/06/27 00:01:15;;;;;;;5.90;2.53;;;16.30;92.40;;;;;;5084100;28;20402;-64
2023/06/27 00:03:41;;;;;;;9.35;3.30;;;16.30;92.50;;;;;;5089589;28;20406;-64
2023/06/27 00:06:06;;;;;;;7.07;2.83;;;16.30;92.50;;;;;;5090409;28;20988;-64
2023/06/27 00:08:33;;;;;;;5.07;2.67;;;16.20;92.50;;;;;;5095803;28;20559;-64
2023/06/27 00:10:59;;;;;;;6.65;3.10;;;16.20;92.60;;;;;;5099857;28;20516;-64
2023/06/27 00:13:24;;;;;;;7.65;3.20;;;16.20;92.80;;;;;;5087697;28;20441;-64
2023/06/27 00:15:52;;;;;;;5.15;2.75;;;16.20;92.70;;;;;;5094938;28;20397;-64
2023/06/27 00:18:22;;;;;;;5.55;2.80;;;16.20;92.70;;;;;;5080431;28;20448;-64
2023/06/27 00:20:48;;;;;;;6.25;3.13;;;16.20;92.70;;;;;;5083436;28;20507;-64
2023/06/27 00:23:33;;;;;;;7.63;3.05;;;16.10;92.70;;;;;;5097625;28;20819;-64
2023/06/27 00:25:59;;;;;;;6.68;3.00;;;16.10;92.80;;;;;;5080987;28;20449;-64
2023/06/27 00:28:25;;;;;;;7.85;3.00;;;16.10;93.00;;;;;;5092391;28;20428;-64
2023/06/27 00:30:50;;;;;;;6.07;2.92;;;16.10;93.00;;;;;;5095330;28;20395;-64
2023/06/27 00:33:16;;;;;;;7.45;3.25;;;16.00;93.00;;;;;;5101211;28;20399;-64
2023/06/27 00:35:41;;;;;;;6.47;3.00;;;16.00;93.00;;;;;;5100477;28;20418;-64
2023/06/27 00:38:07;;;;;;;5.77;3.20;;;15.90;93.00;;;;;;5097571;28;20406;-64
2023/06/27 00:40:33;;;;;;;6.23;2.87;;;15.90;93.20;;;;;;5102977;28;20401;-64
2023/06/27 00:42:58;;;;;;;6.27;3.10;;;15.90;93.40;;;;;;5099109;28;20438;-64
2023/06/27 00:45:24;;;;;;;8.07;3.35;;;15.80;93.60;;;;;;5100826;28;20403;-64
2023/06/27 00:47:53;;;;;;;5.53;2.97;;;15.80;93.50;;;;;;5100821;28;20753;-64
2023/06/27 00:50:22;;;;;;;8.30;3.40;;;15.80;93.60;;;;;;5083298;28;20394;-64
2023/06/27 00:52:48;;;;;;;6.03;3.20;;;15.80;93.80;;;;;;5086484;28;20814;-64
2023/06/27 00:55:14;;;;;;;10.03;3.67;;;15.80;93.90;;;;;;5098826;28;20799;-64
2023/06/27 00:57:40;;;;;;;8.18;3.40;;;15.70;94.20;;;;;;5087275;28;20410;-64
2023/06/27 01:00:11;;;;;;;9.23;3.50;;;15.70;94.30;;;;;;5098247;28;20404;-64
2023/06/27 01:02:36;;;;;;;7.30;3.67;;;15.70;94.40;;;;;;5089217;28;20508;-64
2023/06/27 01:05:03;;;;;;;8.60;3.40;;;15.70;94.40;;;;;;5094050;28;20521;-64
2023/06/27 01:07:42;;;;;;;7.07;3.30;;;15.60;94.40;;;;;;5096463;28;20826;-64
2023/06/27 01:10:33;;;;;;;7.43;3.20;;;15.60;94.60;;;;;;5093666;28;20421;-64
2023/06/27 01:13:08;;;;;;;7.43;3.40;;;15.60;94.90;;;;;;5092605;28;20822;-64
2023/06/27 01:15:35;;;;;;;5.72;3.40;;;15.50;95.20;;;;;;5098659;28;20934;-64
2023/06/27 01:18:01;;;;;;;7.63;3.80;;;15.50;95.40;;;;;;5087315;28;20410;-64
2023/06/27 01:20:28;;;;;;;7.82;4.00;;;15.50;95.60;;;;;;5094458;28;20403;-64
2023/06/27 01:23:07;;;;;;;7.65;4.03;;;15.50;95.90;;;;;;5094650;28;20406;-64
2023/06/27 01:25:33;;;;;;;8.43;3.78;;;15.50;96.10;;;;;;5094978;28;20412;-64
2023/06/27 01:27:59;;;;;;;7.63;4.00;;;15.50;96.20;;;;;;5095918;28;20812;-64
2023/06/27 01:30:25;;;;;;;8.20;3.57;;;15.50;96.50;;;;;;5089462;28;20409;-64
2023/06/27 01:33:03;;;;;;;7.33;4.10;;;15.50;96.60;;;;;;5095606;28;20402;-64
2023/06/27 01:35:57;;;;;;;8.23;4.30;;;15.60;96.70;;;;;;5083471;28;20414;-64
2023/06/27 01:38:30;;;;;;;6.95;4.22;;;15.50;96.80;;;;;;5093712;28;20417;-64
2023/06/27 01:40:58;;;;;;;7.50;4.18;;;15.60;96.90;;;;;;5090958;28;20390;-64
2023/06/27 01:43:26;;;;;;;9.23;4.60;;;15.50;97.00;;;;;;5094205;28;20398;-64
2023/06/27 01:45:53;;;;;;;8.38;4.60;;;15.50;97.10;;;;;;5096905;28;20436;-64
2023/06/27 01:48:20;;;;;;;8.15;4.35;;;15.50;97.40;;;;;;5081870;28;20427;-64
2023/06/27 01:50:46;;;;;;;9.20;4.65;;;15.70;97.60;;;;;;5076715;28;20500;-64
2023/06/27 01:53:11;;;;;;;9.05;4.50;;;15.50;97.60;;;;;;5090446;28;20390;-64
2023/06/27 01:55:37;;;;;;;9.25;4.60;;;15.50;97.80;;;;;;5089886;28;20413;-64
2023/06/27 01:58:03;;;;;;;10.65;4.55;;;15.50;97.90;;;;;;5079695;28;20409;-64
2023/06/27 02:00:28;;;;;;;8.43;4.80;;;15.50;98.20;;;;;;5095940;28;20403;-64
2023/06/27 02:02:54;;;;;;;9.20;4.72;;;15.50;98.30;;;;;;5078164;28;20398;-64
2023/06/27 02:05:20;;;;;;;8.05;4.85;;;15.50;98.40;;;;;;5096396;28;20903;-64
2023/06/27 02:07:45;;;;;;;10.20;5.37;;;15.40;98.40;;;;;;5081667;28;20410;-64
2023/06/27 02:10:11;;;;;;;10.27;5.13;;;15.40;98.60;;;;;;5082950;28;20413;-64
2023/06/27 02:12:37;;;;;;;9.00;4.65;;;15.40;98.70;;;;;;5088365;28;20413;-64
2023/06/27 02:15:03;;;;;;;9.82;5.10;;;15.40;98.70;;;;;;5097577;28;20425;-64
2023/06/27 02:17:29;;;;;;;9.13;4.75;;;15.40;98.90;;;;;;5105596;28;20403;-64
2023/06/27 02:19:54;;;;;;;10.40;5.00;;;15.40;98.90;;;;;;5098783;28;20978;-64
2023/06/27 02:22:20;;;;;;;8.52;5.20;;;15.40;99.00;;;;;;5096541;28;20483;-64
2023/06/27 02:24:45;;;;;;;8.30;5.30;;;15.40;99.30;;;;;;5097688;28;20875;-64
2023/06/27 02:27:12;;;;;;;7.53;5.03;;;15.30;99.40;;;;;;5100947;28;20443;-64
2023/06/27 02:29:38;;;;;;;9.10;5.13;;;15.30;99.60;;;;;;5098511;28;20420;-64
2023/06/27 02:32:04;;;;;;;10.65;5.28;;;15.30;99.80;;;;;;5096336;28;20889;-64
2023/06/27 02:34:30;;;;;;;9.82;5.70;;;15.30;99.90;;;;;;5103858;28;20427;-64
2023/06/27 02:36:56;;;;;;;11.50;5.40;;;15.30;99.90;;;;;;5087960;28;20409;-64
2023/06/27 02:39:21;;;;;;;11.98;5.80;;;15.30;99.90;;;;;;5090632;28;20475;-64
2023/06/27 02:41:47;;;;;;;11.80;5.82;;;15.30;99.90;;;;;;5099634;28;20405;-64
2023/06/27 02:44:12;;;;;;;10.23;5.50;;;15.30;99.90;;;;;;5095101;28;20404;-64
2023/06/27 02:46:38;;;;;;;9.30;5.40;;;15.30;99.90;;;;;;5098415;28;20412;-64
2023/06/27 02:49:04;;;;;;;11.27;6.03;;;15.30;99.90;;;;;;5093979;28;21295;-64
2023/06/27 02:51:29;;;;;;;9.32;5.50;;;15.20;99.90;;;;;;5085768;28;20405;-64
2023/06/27 02:53:55;;;;;;;9.00;5.90;;;15.20;99.90;;;;;;5100764;28;20420;-64
2023/06/27 02:56:20;;;;;;;10.18;6.20;;;15.20;99.90;;;;;;5092839;28;20410;-64
2023/06/27 02:58:46;;;;;;;8.87;6.23;;;15.30;99.90;;;;;;5091960;28;20783;-64
2023/06/27 03:01:12;;;;;;;11.03;6.30;;;15.20;99.90;;;;;;5101854;28;20408;-64
2023/06/27 03:03:37;;;;;;;10.73;6.20;;;15.20;99.90;;;;;;5098271;28;20683;-64
2023/06/27 03:06:08;;;;;;;11.60;6.43;;;15.20;99.90;;;;;;5097058;28;20390;-65
2023/06/27 03:08:35;;;;;;;10.52;6.30;;;15.20;99.90;;;;;;5093612;28;20398;-65
2023/06/27 03:11:01;;;;;;;13.07;6.35;;;15.20;99.90;;;;;;5106689;28;20400;-65
2023/06/27 03:13:26;;;;;;;9.43;6.25;;;15.20;99.90;;;;;;5099582;28;20396;-65
2023/06/27 03:15:52;;;;;;;11.05;6.43;;;15.20;99.90;;;;;;5105492;28;20410;-65
2023/06/27 03:18:17;;;;;;;9.90;6.50;;;15.20;99.90;;;;;;5086714;28;20401;-64
2023/06/27 03:20:43;;;;;;;12.53;6.60;;;15.20;99.90;;;;;;5099539;28;20397;-65
2023/06/27 03:23:09;;;;;;;11.07;6.50;;;15.20;99.90;;;;;;5099786;28;20747;-65
2023/06/27 03:25:34;;;;;;;11.15;6.50;;;15.30;99.90;;;;;;5093527;28;20405;-64
2023/06/27 03:28:02;;;;;;;11.38;7.13;;;15.20;99.90;;;;;;5089878;28;20433;-64
2023/06/27 03:30:27;;;;;;;12.45;7.20;;;15.20;99.90;;;;;;5090120;28;20416;-65
2023/06/27 03:32:53;;;;;;;11.13;7.07;;;15.20;99.90;;;;;;5090232;28;20408;-65
2023/06/27 03:35:19;;;;;;;10.03;6.53;;;15.20;99.90;;;;;;5085526;28;20433;-64
2023/06/27 03:37:44;;;;;;;14.83;7.40;;;15.20;99.90;;;;;;5091486;28;20703;-65
2023/06/27 03:40:11;;;;;;;12.35;6.80;;;15.20;99.90;;;;;;5091267;28;20505;-65
2023/06/27 03:42:36;;;;;;;11.13;7.00;;;15.20;99.90;;;;;;5086258;28;20897;-65
2023/06/27 03:45:03;;;;;;;11.30;7.13;;;15.20;99.90;;;;;;5096612;28;20444;-64
2023/06/27 03:47:30;;;;;;;14.07;7.25;;;15.20;99.90;;;;;;5098157;28;20399;-65
2023/06/27 03:49:55;;;;;;;11.38;7.13;;;15.20;99.90;;;;;;5088271;28;20448;-65
2023/06/27 03:52:21;;;;;;;10.70;7.07;;;15.20;99.90;;;;;;5091063;28;20587;-65
2023/06/27 03:54:47;;;;;;;12.95;6.88;;;15.20;99.90;;;;;;5085354;28;20831;-64
2023/06/27 03:57:12;;;;;;;13.90;6.97;;;15.20;99.90;;;;;;5090965;28;20408;-65
2023/06/27 03:59:38;;;;;;;12.07;6.97;;;15.20;99.90;;;;;;5101148;27;20760;-65
2023/06/27 04:02:04;;;;;;;11.93;6.70;;;15.20;99.90;;;;;;5088807;28;20772;-65
2023/06/27 04:04:29;;;;;;;11.57;7.30;;;15.20;99.90;;;;;;5085988;28;20916;-65
2023/06/27 04:06:55;;;;;;;10.30;7.00;;;15.20;99.90;;;;;;5096238;28;20487;-65
2023/06/27 04:09:21;;;;;;;10.97;6.10;;;15.20;99.90;;;;;;5084254;28;20543;-65
2023/06/27 04:11:46;;;;;;;10.63;6.80;;;15.20;99.90;;;;;;5089796;28;20937;-65
2023/06/27 04:14:17;;;;;;;9.90;6.93;;;15.10;99.90;;;;;;5088620;28;20466;-65
2023/06/27 04:16:45;;;;;;;16.63;7.20;;;15.10;99.90;;;;;;5078125;28;20423;-65
2023/06/27 04:19:11;;;;;;;13.55;7.13;;;15.10;99.90;;;;;;5083632;28;20476;-65
2023/06/27 04:21:36;;;;;;;12.23;7.53;;;15.10;99.90;;;;;;5085563;28;21047;-65
2023/06/27 04:24:02;;;;;;;14.48;7.45;;;15.20;99.90;;;;;;5095764;28;20405;-64
2023/06/27 04:26:28;;;;;;;12.18;7.88;;;15.20;99.90;;;;;;5092596;28;20408;-65
2023/06/27 04:28:53;;;;;;;12.48;7.55;;;15.20;99.90;;;;;;5090491;28;20405;-64
2023/06/27 04:31:19;;;;;;;12.15;7.68;;;15.30;99.90;;;;;;5085744;28;20425;-65
2023/06/27 04:33:45;;;;;;;13.40;7.77;;;15.30;99.90;;;;;;5095728;28;20396;-65
2023/06/27 04:36:15;;;;;;;12.60;7.63;;;15.30;99.90;;;;;;5084804;28;20390;-64
2023/06/27 04:38:42;;;;;;;13.38;7.70;;;15.40;99.90;;;;;;5098318;28;20436;-64
2023/06/27 04:41:08;;;;;;;12.90;8.55;;;15.40;99.90;;;;;;5089964;28;20407;-65
2023/06/27 04:43:35;;;;;;;12.95;7.80;;;15.40;99.90;;;;;;5101081;28;20735;-65
2023/06/27 04:46:01;;;;;;;12.35;8.07;;;15.60;99.90;;;;;;5093805;28;20402;-65
2023/06/27 04:48:28;;;;;;;14.27;8.15;;;15.50;99.90;;;;;;5101908;28;20392;-65
2023/06/27 04:50:54;;;;;;;13.18;8.15;;;15.50;99.90;;;;;;5093108;28;20403;-64
2023/06/27 04:53:24;;;;;;;15.60;8.00;;;15.50;99.90;;;;;;5099580;28;20892;-65
2023/06/27 04:55:51;;;;;;;13.63;8.10;;;15.60;99.90;;;;;;5089602;28;20468;-64
2023/06/27 04:58:21;;;;;;;12.30;8.23;;;15.60;99.90;;;;;;5093850;28;20402;-65
2023/06/27 05:00:47;;;;;;;15.07;8.40;;;15.60;99.90;;;;;;5085192;28;20419;-64
2023/06/27 05:03:17;;;;;;;15.27;9.10;;;15.70;99.90;;;;;;5093070;28;20492;-64
2023/06/27 05:05:43;;;;;;;15.85;8.73;;;15.80;99.90;;;;;;5095560;28;20448;-64
2023/06/27 05:08:10;;;;;;;14.13;8.75;;;15.80;99.90;;;;;;5096268;28;21097;-64
2023/06/27 05:10:35;;;;;;;16.00;9.00;;;15.80;99.90;;;;;;5097080;28;20420;-64
2023/06/27 05:13:01;;;;;;;15.82;9.15;;;15.80;99.90;;;;;;5103547;28;21000;-64
2023/06/27 05:15:27;;;;;;;12.68;8.23;;;15.90;99.90;;;;;;5098406;28;20890;-62
2023/06/27 05:17:54;;;;;;;16.42;8.73;;;15.90;99.90;;;;;;5092823;28;20440;-63
2023/06/27 05:20:20;;;;;;;17.33;8.90;;;15.90;99.90;;;;;;5081810;28;20424;-62
2023/06/27 05:22:46;;;;;;;14.45;8.73;;;16.00;99.90;;;;;;5095016;28;20406;-68
2023/06/27 05:25:12;;;;;;;13.98;8.50;;;16.10;99.90;;;;;;5092153;28;20812;-67
2023/06/27 05:27:38;;;;;;;14.65;8.65;;;16.10;99.90;;;;;;5099959;28;20508;-63
2023/06/27 05:30:04;;;;;;;16.05;8.90;;;16.20;99.90;;;;;;5097442;28;20764;-62
2023/06/27 05:32:30;;;;;;;17.60;8.88;;;16.20;99.90;;;;;;5102116;27;20416;-62
2023/06/27 05:34:55;;;;;;;20.80;9.27;;;16.20;99.90;;;;;;5103502;28;20894;-63
2023/06/27 05:37:21;;;;;;;16.95;9.45;;;16.30;99.90;;;;;;5097863;28;20501;-63
2023/06/27 05:39:46;;;;;;;14.00;8.63;;;16.30;99.90;;;;;;5102776;28;20412;-64
2023/06/27 05:42:12;;;;;;;13.57;8.30;;;16.40;99.90;;;;;;5091445;28;20491;-62
2023/06/27 05:44:38;;;;;;;16.77;8.97;;;16.40;99.90;;;;;;5094510;28;20409;-63
2023/06/27 05:47:05;;;;;;;16.67;8.20;;;16.50;99.90;;;;;;5085717;28;20841;-63
2023/06/27 05:49:33;;;;;;;14.45;7.63;;;16.50;99.90;;;;;;5068233;28;20464;-63
2023/06/27 05:51:59;;;;;;;12.68;6.82;;;16.60;99.90;;;;;;5086230;28;20409;-64
2023/06/27 05:54:25;;;;;;;11.40;6.47;;;16.70;99.90;;;;;;5092973;28;20422;-63
2023/06/27 05:56:51;;;;;;;11.77;5.80;;;16.80;99.90;;;;;;5092560;28;20395;-63
2023/06/27 05:59:17;;;;;;;12.30;6.30;;;16.90;99.90;;;;;;5086534;28;20420;-68
2023/06/27 06:01:42;;;;;;;13.03;6.07;;;16.90;99.90;;;;;;5099182;28;20447;-62
2023/06/27 06:04:09;;;;;;;10.45;5.60;;;17.00;99.90;;;;;;5086973;28;20400;-62
2023/06/27 06:06:37;;;;;;;10.07;4.95;;;17.10;99.90;;;;;;5087652;28;20401;-62
2023/06/27 06:09:04;;;;;;;10.95;5.15;;;17.10;99.90;;;;;;5082739;28;20449;-68
2023/06/27 06:11:30;;;;;;;10.47;4.73;;;17.20;99.90;;;;;;5084766;28;20414;-62
2023/06/27 06:13:56;;;;;;;9.83;4.30;;;17.30;99.90;;;;;;5083507;28;20838;-62
2023/06/27 06:16:24;;;;;;;10.90;3.90;;;17.40;99.90;;;;;;5082739;28;20405;-66
2023/06/27 06:18:49;;;;;;;9.00;3.75;;;17.50;99.90;;;;;;5095076;28;20413;-69
2023/06/27 06:21:15;;;;;;;8.98;2.90;;;17.60;99.90;;;;;;5085111;28;20443;-65
2023/06/27 06:23:41;;;;;;;8.23;2.63;;;17.70;99.90;;;;;;5080837;28;20942;-63
2023/06/27 06:26:06;;;;;;;6.95;2.60;;;17.70;99.90;;;;;;5092387;28;20473;-63
2023/06/27 06:28:32;;;;;;;6.72;2.22;;;17.90;99.90;;;;;;5081971;28;20413;-63
2023/06/27 06:30:58;;;;;;;6.20;2.20;;;17.90;99.90;;;;;;5095569;28;20510;-68
2023/06/27 06:33:24;;;;;;;9.17;2.27;;;18.10;99.90;;;;;;5088008;28;20389;-62
2023/06/27 06:35:49;;;;;;;6.40;2.30;;;18.20;99.90;;;;;;5096120;28;20407;-62
2023/06/27 06:38:15;;;;;;;5.40;1.83;;;18.40;99.90;;;;;;5086322;28;20924;-62
2023/06/27 06:40:40;;;;;;;6.05;1.80;;;18.50;99.90;;;;;;5087780;28;20414;-63
2023/06/27 06:43:06;;;;;;;7.90;1.70;;;18.60;99.90;;;;;;5086980;28;20910;-67
2023/06/27 06:45:32;;;;;;;4.13;1.50;;;18.80;98.80;;;;;;5087702;28;20409;-65
2023/06/27 06:47:59;;;;;;;5.10;1.40;;;18.90;98.10;;;;;;5086374;28;20402;-63
2023/06/27 06:50:25;;;;;;;5.15;1.52;;;19.00;97.40;;;;;;5088129;28;20516;-67
2023/06/27 06:52:50;;;;;;;5.40;1.70;;;19.10;96.20;;;;;;5089376;28;20509;-65
2023/06/27 06:55:16;;;;;;;5.18;1.50;;;19.20;95.60;;;;;;5094875;28;20414;-62
2023/06/27 06:57:42;;;;;;;3.88;1.40;;;19.30;95.10;;;;;;5088418;28;20406;-62
2023/06/27 07:00:08;;;;;;;7.30;1.70;;;19.40;94.80;;;;;;5088097;28;20971;-63
2023/06/27 07:02:34;;;;;;;4.57;1.33;;;19.40;94.70;;;;;;5089904;28;20437;-63
2023/06/27 07:04:59;;;;;;;3.83;1.30;;;19.50;94.40;;;;;;5099001;28;20484;-63
2023/06/27 07:07:25;;;;;;;5.22;1.55;;;19.60;94.00;;;;;;5090379;28;20414;-64
2023/06/27 07:09:51;;;;;;;5.40;1.30;;;19.70;93.70;;;;;;5094382;28;20896;-68
2023/06/27 07:12:17;;;;;;;4.37;1.50;;;19.70;93.50;;;;;;5092776;28;20554;-62
2023/06/27 07:14:43;;;;;;;5.13;1.50;;;19.80;93.30;;;;;;5093330;28;20442;-66
2023/06/27 07:17:09;;;;;;;4.83;1.70;;;19.90;93.30;;;;;;5088319;28;20422;-63
2023/06/27 07:19:34;;;;;;;3.43;1.33;;;19.90;93.30;;;;;;5095987;28;20443;-62
2023/06/27 07:22:00;;;;;;;5.13;1.50;;;19.90;93.20;;;;;;5092012;28;20409;-63
2023/06/27 07:24:25;;;;;;;5.10;1.43;;;20.10;93.10;;;;;;5108175;28;20400;-65
2023/06/27 07:26:51;;;;;;;5.17;1.60;;;20.10;92.90;;;;;;5090215;28;20468;-63
2023/06/27 07:29:17;;;;;;;3.90;1.60;;;20.20;93.00;;;;;;5080576;28;20702;-62
2023/06/27 07:31:43;;;;;;;6.00;1.50;;;20.30;92.50;;;;;;5098126;28;20408;-63
2023/06/27 07:34:08;;;;;;;5.05;1.30;;;20.30;92.20;;;;;;5078700;28;20428;-63
2023/06/27 07:36:35;;;;;;;5.30;1.40;;;20.40;91.30;;;;;;5083150;28;20733;-63
2023/06/27 07:39:00;;;;;;;5.97;1.40;;;20.40;90.90;;;;;;5077374;28;20431;-68
2023/06/27 07:41:28;;;;;;;4.32;1.40;;;20.40;90.90;;;;;;5083034;28;20824;-63
2023/06/27 07:43:54;;;;;;;4.93;1.40;;;20.50;90.90;;;;;;5087072;28;20411;-64
2023/06/27 07:46:20;;;;;;;5.30;1.40;;;20.50;90.80;;;;;;5098654;28;20404;-69
2023/06/27 07:48:45;;;;;;;6.23;1.50;;;20.50;90.40;;;;;;5084339;28;20789;-64
2023/06/27 07:51:11;;;;;;;6.90;1.70;;;20.60;90.20;;;;;;5084504;28;20395;-63
2023/06/27 07:53:36;;;;;;;5.43;1.60;;;20.60;90.20;;;;;;5092871;28;20440;-64
2023/06/27 07:56:02;;;;;;;4.90;1.50;;;20.70;90.40;;;;;;5087716;28;20390;-71
2023/06/27 07:58:28;;;;;;;5.72;1.52;;;20.70;90.40;;;;;;5078657;28;20916;-64
2023/06/27 08:00:54;;;;;;;3.67;1.40;;;20.80;90.40;;;;;;5078246;28;20899;-63
2023/06/27 08:03:20;;;;;;;4.93;1.52;;;20.90;90.20;;;;;;5080603;28;20433;-66
2023/06/27 08:05:46;;;;;;;6.82;1.88;;;21.00;90.10;;;;;;5078351;28;20414;-69
2023/06/27 08:08:11;;;;;;;3.63;1.43;;;21.10;88.90;;;;;;5083611;28;20415;-63
2023/06/27 08:10:37;;;;;;;6.30;1.63;;;21.10;88.70;;;;;;5086062;28;20429;-64
2023/06/27 08:13:02;;;;;;;6.28;1.50;;;21.20;88.00;;;;;;5085507;28;20415;-71
2023/06/27 08:15:28;;;;;;;6.27;1.67;;;21.20;87.80;;;;;;5088786;28;20408;-62
2023/06/27 08:17:54;;;;;;;3.47;1.30;;;21.30;87.40;;;;;;5081649;28;20421;-63
2023/06/27 08:20:19;;;;;;;7.18;1.58;;;21.40;86.40;;;;;;5083603;28;20402;-63
2023/06/27 08:22:45;;;;;;;6.27;1.50;;;21.50;86.30;;;;;;5090132;28;20404;-68
2023/06/27 08:25:10;;;;;;;4.03;1.40;;;21.70;85.80;;;;;;5087448;28;20534;-63
2023/06/27 08:27:36;;;;;;;6.85;1.60;;;21.80;84.00;;;;;;5092256;28;20490;-66
2023/06/27 08:30:02;;;;;;;4.13;1.40;;;22.00;84.60;;;;;;5084903;28;20524;-68
2023/06/27 08:32:27;;;;;;;5.85;1.55;;;22.10;83.10;;;;;;5077453;28;20444;-69
2023/06/27 08:34:53;;;;;;;6.30;1.60;;;22.30;81.50;;;;;;5080261;28;20414;-66
2023/06/27 08:37:21;;;;;;;3.90;1.30;;;22.50;81.50;;;;;;5081444;28;20576;-63
2023/06/27 08:39:51;;;;;;;4.90;1.50;;;22.70;81.50;;;;;;5080798;28;20883;-69
2023/06/27 08:42:17;;;;;;;5.63;1.58;;;22.90;80.50;;;;;;5090842;28;20525;-68
2023/06/27 08:44:43;;;;;;;5.70;1.63;;;23.10;78.80;;;;;;5083975;28;20448;-62
2023/06/27 08:47:11;;;;;;;4.17;1.40;;;23.20;77.50;;;;;;5082709;28;20442;-64
2023/06/27 08:49:39;;;;;;;5.03;1.52;;;23.20;77.60;;;;;;5082769;28;20395;-63
2023/06/27 08:52:08;;;;;;;7.00;1.67;;;23.10;77.20;;;;;;5093328;28;20438;-71
2023/06/27 08:54:42;;;;;;;5.57;1.48;;;23.00;76.70;;;;;;5084213;28;20423;-68
2023/06/27 08:57:11;;;;;;;4.70;1.58;;;22.90;76.60;;;;;;5081103;28;20422;-66
2023/06/27 08:59:37;;;;;;;3.20;1.48;;;22.80;76.40;;;;;;5079027;28;20394;-65
2023/06/27 09:02:05;;;;;;;4.57;1.55;;;22.80;76.50;;;;;;5082949;28;20402;-63
2023/06/27 09:04:34;;;;;;;4.90;1.52;;;22.80;77.00;;;;;;5078255;28;20430;-64
2023/06/27 09:07:01;;;;;;;4.25;1.50;;;22.80;76.90;;;;;;5077705;28;20413;-69
2023/06/27 09:09:28;;;;;;;5.03;1.58;;;22.80;77.50;;;;;;5088418;28;20388;-62
2023/06/27 09:11:54;;;;;;;6.05;1.55;;;22.80;77.20;;;;;;5081914;28;20888;-62
2023/06/27 09:14:20;;;;;;;4.70;1.42;;;22.70;76.40;;;;;;5087047;28;20546;-62
2023/06/27 09:16:46;;;;;;;5.47;1.80;;;22.70;75.00;;;;;;5080724;28;20441;-67
2023/06/27 09:19:12;;;;;;;5.10;1.55;;;22.60;75.80;;;;;;5086299;28;20425;-62
2023/06/27 09:21:39;;;;;;;5.85;1.38;;;22.50;73.10;;;;;;5088751;28;20392;-62
2023/06/27 09:24:06;;;;;;;4.47;1.40;;;22.50;72.60;;;;;;5076667;28;20503;-66
2023/06/27 09:26:31;;;;;;;8.48;1.50;;;22.40;71.90;;;;;;5081181;28;20430;-69
2023/06/27 09:28:59;;;;;;;4.83;1.40;;;22.30;73.00;;;;;;5076721;28;20428;-66
2023/06/27 09:31:26;;;;;;;4.70;1.60;;;22.30;74.00;;;;;;5080653;28;20876;-65
2023/06/27 09:34:04;;;;;;;6.97;1.35;;;22.30;74.40;;;;;;5080618;28;20400;-62
2023/06/27 09:36:34;;;;;;;5.05;1.58;;;22.30;74.60;;;;;;5075717;28;20475;-62
2023/06/27 09:39:04;;;;;;;5.15;1.50;;;22.40;76.10;;;;;;5098041;28;20743;-62
2023/06/27 09:41:50;;;;;;;4.95;1.50;;;22.60;76.20;;;;;;5094923;28;20400;-67
2023/06/27 09:44:17;;;;;;;6.03;1.30;;;22.80;76.90;;;;;;5091359;28;20451;-66
2023/06/27 09:46:44;;;;;;;4.53;1.40;;;23.00;74.20;;;;;;5090048;28;20965;-67
2023/06/27 09:49:11;;;;;;;4.13;1.30;;;23.20;72.90;;;;;;5087800;28;20394;-69
2023/06/27 09:51:37;;;;;;;6.55;1.75;;;23.20;72.60;;;;;;5096422;28;21128;-63
2023/06/27 09:54:04;;;;;;;4.85;1.55;;;23.30;72.80;;;;;;5083235;28;20425;-63
2023/06/27 09:56:34;;;;;;;6.63;1.60;;;23.40;73.00;;;;;;5078635;28;20467;-63
2023/06/27 09:59:07;;;;;;;8.43;1.80;;;23.50;73.30;;;;;;5079263;28;20760;-68
2023/06/27 10:01:36;;;;;;;3.90;1.60;;;23.50;73.40;;;;;;5078997;28;20400;-70
2023/06/27 10:04:02;;;;;;;6.93;1.70;;;23.50;73.20;;;;;;5079300;28;20402;-65
2023/06/27 10:06:28;;;;;;;5.90;1.40;;;23.50;73.80;;;;;;5075454;28;21668;-63
2023/06/27 10:08:55;;;;;;;5.60;1.50;;;23.60;73.30;;;;;;5077152;28;20421;-68
2023/06/27 10:11:22;;;;;;;4.60;1.63;;;23.80;72.30;;;;;;5082612;28;20961;-66
2023/06/27 10:13:48;;;;;;;3.63;1.27;;;24.00;71.00;;;;;;5081272;28;20480;-63
2023/06/27 10:16:16;;;;;;;5.30;1.48;;;24.20;70.50;;;;;;5085125;28;20876;-68
2023/06/27 10:18:42;;;;;;;4.23;1.53;;;24.40;69.70;;;;;;5082768;28;20855;-63
2023/06/27 10:21:09;;;;;;;4.73;1.57;;;24.60;69.90;;;;;;5090484;28;20389;-70
2023/06/27 10:23:37;;;;;;;4.85;1.42;;;24.80;69.50;;;;;;5082807;28;20439;-68
2023/06/27 10:26:03;;;;;;;4.60;1.50;;;24.90;68.60;;;;;;5079945;28;20792;-67
2023/06/27 10:28:32;;;;;;;4.70;1.40;;;24.90;67.80;;;;;;5079055;28;20411;-64
2023/06/27 10:30:58;;;;;;;7.33;1.50;;;24.90;67.70;;;;;;5084666;28;20424;-63
2023/06/27 10:33:28;;;;;;;5.07;1.40;;;25.10;67.80;;;;;;5083570;28;20900;-65
2023/06/27 10:36:07;;;;;;;7.88;1.60;;;25.40;67.90;;;;;;5082347;28;21088;-66
2023/06/27 10:38:40;;;;;;;5.75;1.50;;;25.70;65.50;;;;;;5081859;28;21014;-69
2023/06/27 10:41:22;;;;;;;6.45;1.73;;;25.80;64.70;;;;;;5085068;28;20499;-68
2023/06/27 10:43:52;;;;;;;7.85;1.60;;;25.80;64.80;;;;;;5082819;28;20429;-63
2023/06/27 10:46:23;;;;;;;5.75;1.80;;;25.70;64.50;;;;;;5085462;28;20394;-67
2023/06/27 10:48:57;;;;;;;5.85;1.60;;;25.60;62.70;;;;;;5082177;28;20478;-69
2023/06/27 10:51:32;;;;;;;7.47;1.60;;;25.40;63.40;;;;;;5088216;28;20766;-68
2023/06/27 10:54:14;;;;;;;5.45;1.67;;;25.20;64.70;;;;;;5080079;28;20401;-67
2023/06/27 10:56:59;;;;;;;5.72;1.70;;;25.00;64.90;;;;;;5080283;28;20398;-64
2023/06/27 10:59:26;;;;;;;9.93;1.85;;;24.80;64.90;;;;;;5082862;28;20393;-62
2023/06/27 11:01:58;;;;;;;8.03;1.70;;;24.80;64.90;;;;;;5087247;28;20398;-65
2023/06/27 11:04:25;;;;;;;5.65;1.50;;;24.70;66.20;;;;;;5081924;28;20433;-62
2023/06/27 11:07:01;;;;;;;3.53;1.35;;;24.60;65.00;;;;;;5092758;28;20416;-67
2023/06/27 11:09:29;;;;;;;5.67;1.53;;;24.40;64.90;;;;;;5080237;28;20398;-70
2023/06/27 11:12:15;;;;;;;6.73;1.60;;;24.20;66.00;;;;;;5083579;28;20401;-67
2023/06/27 11:14:45;;;;;;;5.03;1.40;;;24.30;66.50;;;;;;5080364;28;20417;-63
2023/06/27 11:17:12;;;;;;;4.50;1.60;;;24.40;65.30;;;;;;5083475;28;20428;-65
2023/06/27 11:19:39;;;;;;;4.72;1.35;;;24.50;64.80;;;;;;5085674;28;20398;-67
2023/06/27 11:22:06;;;;;;;4.55;1.50;;;24.40;65.40;;;;;;5089483;28;20793;-63
2023/06/27 11:24:32;;;;;;;5.85;1.40;;;24.30;64.80;;;;;;5088889;28;20419;-63
2023/06/27 11:27:00;;;;;;;4.22;1.50;;;24.20;65.00;;;;;;5087122;28;20485;-63
2023/06/27 11:29:27;;;;;;;3.42;1.38;;;24.20;65.80;;;;;;5080852;28;20414;-70
2023/06/27 11:31:54;;;;;;;4.65;1.42;;;24.10;65.10;;;;;;5082745;28;20735;-70
2023/06/27 11:34:20;;;;;;;4.67;1.60;;;24.20;65.50;;;;;;5078337;28;20633;-71
2023/06/27 11:36:46;;;;;;;4.88;1.60;;;24.20;65.40;;;;;;5086849;28;21045;-63
2023/06/27 11:39:12;;;;;;;4.93;1.40;;;24.30;65.60;;;;;;5084983;28;20394;-69
2023/06/27 11:41:39;;;;;;;3.67;1.50;;;24.40;65.80;;;;;;5088343;28;20778;-65
2023/06/27 11:44:15;;;;;;;5.15;1.45;;;24.50;65.90;;;;;;5083317;28;20424;-63
2023/06/27 11:46:51;;;;;;;4.80;1.45;;;24.70;66.00;;;;;;5083868;28;20451;-65
2023/06/27 11:49:24;;;;;;;4.05;1.35;;;24.80;64.30;;;;;;5082790;28;20914;-65
2023/06/27 11:51:59;;;;;;;4.63;1.63;;;24.90;64.50;;;;;;5075765;28;20429;-69
2023/06/27 11:54:25;;;;;;;4.53;1.42;;;25.00;63.90;;;;;;5080190;28;20417;-67
2023/06/27 11:56:50;;;;;;;4.33;1.50;;;24.90;64.40;;;;;;5082538;28;21814;-63
2023/06/27 11:59:28;;;;;;;4.25;1.33;;;25.00;65.60;;;;;;5084533;28;20454;-67
2023/06/27 12:01:55;;;;;;;4.85;1.52;;;25.20;64.60;;;;;;5076313;28;20795;-66
2023/06/27 12:04:21;;;;;;;5.10;1.60;;;25.50;64.20;;;;;;5084858;28;20428;-66
2023/06/27 12:06:48;;;;;;;4.60;1.48;;;25.90;63.90;;;;;;5084498;28;20955;-64
2023/06/27 12:09:27;;;;;;;3.70;1.40;;;26.10;61.60;;;;;;5085778;28;20519;-62
2023/06/27 12:11:58;;;;;;;6.00;1.58;;;26.20;59.90;;;;;;5082774;28;20417;-65
2023/06/27 12:14:25;;;;;;;5.80;1.60;;;26.10;59.80;;;;;;5088586;28;20551;-65
2023/06/27 12:16:52;;;;;;;3.10;1.30;;;26.00;59.80;;;;;;5088006;28;20406;-65
2023/06/27 12:19:19;;;;;;;4.25;1.42;;;26.00;59.30;;;;;;5087211;28;20519;-65
2023/06/27 12:21:45;;;;;;;2.47;1.20;;;25.90;59.30;;;;;;5090666;28;20416;-64
2023/06/27 12:24:10;;;;;;;5.83;1.40;;;26.00;59.90;;;;;;5089344;28;20410;-64
2023/06/27 12:26:36;;;;;;;5.53;1.40;;;26.00;58.90;;;;;;5089139;28;20406;-65
2023/06/27 12:29:04;;;;;;;2.77;1.30;;;25.90;59.10;;;;;;5100788;28;20391;-64
2023/06/27 12:31:30;;;;;;;2.67;1.33;;;25.80;59.00;;;;;;5094245;28;20465;-65
2023/06/27 12:33:59;;;;;;;3.92;1.48;;;25.70;58.90;;;;;;5089768;28;20455;-65
2023/06/27 12:36:25;;;;;;;4.53;1.40;;;25.50;58.90;;;;;;5089876;28;20441;-65
2023/06/27 12:38:51;;;;;;;3.72;1.50;;;25.30;59.00;;;;;;5098532;28;20399;-65
2023/06/27 12:41:18;;;;;;;6.73;1.60;;;25.20;59.10;;;;;;5093061;28;20489;-65
2023/06/27 12:43:45;;;;;;;3.97;1.50;;;25.10;59.30;;;;;;5098139;28;20404;-65